Time;durP1;ratioP1;P1;durP2;ratioP2;P2;SDS_P1;SDS_P2;PMS_P1;PMS_P2;Temp;Humidity;BMP_temperature;BMP_pressure;BME280_temperature;BME280_humidity;BME280_pressure;Samples;Min_cycle;Max_cycle;Signal;HPM_P1;HPM_P2
2022/11/14 00:00:40;;;;;;;8.05;5.63;;;9.80;66.50;;;;;;4994881;28;20115;-91
2022/11/14 00:03:07;;;;;;;8.85;5.45;;;9.70;66.70;;;;;;4993556;28;20034;-89
2022/11/14 00:05:38;;;;;;;8.43;5.13;;;9.70;66.80;;;;;;4995956;28;20113;-86
2022/11/14 00:08:04;;;;;;;6.38;4.75;;;9.70;67.00;;;;;;4999271;28;20027;-88
2022/11/14 00:10:30;;;;;;;7.72;5.57;;;9.60;67.00;;;;;;4995834;28;20483;-87
2022/11/14 00:12:56;;;;;;;7.63;5.47;;;9.60;67.00;;;;;;5002973;28;20125;-88
2022/11/14 00:15:22;;;;;;;9.55;5.30;;;9.50;67.10;;;;;;5011314;28;20034;-88
2022/11/14 00:17:47;;;;;;;10.82;5.55;;;9.50;67.30;;;;;;4995377;28;20022;-88
2022/11/14 00:20:13;;;;;;;10.20;6.18;;;9.50;67.40;;;;;;5011218;28;20022;-91
2022/11/14 00:22:39;;;;;;;9.05;5.35;;;9.40;67.40;;;;;;4995352;28;20122;-88
2022/11/14 00:25:06;;;;;;;8.45;5.85;;;9.40;67.70;;;;;;5006070;28;20117;-88
2022/11/14 00:27:32;;;;;;;9.73;5.55;;;9.40;67.90;;;;;;5002736;28;20117;-88
2022/11/14 00:29:57;;;;;;;8.18;6.07;;;9.30;67.90;;;;;;5008796;28;20112;-92
2022/11/14 00:32:23;;;;;;;10.77;7.30;;;9.30;68.00;;;;;;4999590;28;20082;-92
2022/11/14 00:34:49;;;;;;;10.43;7.05;;;9.30;68.20;;;;;;5011149;28;20428;-91
2022/11/14 00:37:14;;;;;;;9.63;6.20;;;9.30;68.20;;;;;;4994949;28;20030;-92
2022/11/14 00:39:40;;;;;;;10.25;5.35;;;9.30;68.30;;;;;;4993982;28;20105;-87
2022/11/14 00:42:06;;;;;;;8.60;5.70;;;9.20;68.20;;;;;;4994047;28;20046;-88
2022/11/14 00:44:31;;;;;;;9.63;5.18;;;9.20;68.20;;;;;;5009221;28;20034;-87
2022/11/14 00:46:57;;;;;;;12.13;6.25;;;9.20;68.40;;;;;;5009500;28;20096;-87
2022/11/14 00:49:23;;;;;;;12.95;6.63;;;9.10;68.40;;;;;;4993867;28;20027;-92
2022/11/14 00:51:49;;;;;;;10.75;6.07;;;9.10;68.50;;;;;;5008121;28;20037;-93
2022/11/14 00:54:14;;;;;;;9.65;5.30;;;9.10;68.70;;;;;;5006840;28;20551;-88
2022/11/14 00:56:40;;;;;;;10.10;6.28;;;9.10;68.60;;;;;;5008413;28;20472;-90
2022/11/14 00:59:06;;;;;;;8.65;6.05;;;9.10;68.70;;;;;;4977872;28;20116;-88
2022/11/14 01:01:31;;;;;;;10.00;6.60;;;9.10;68.70;;;;;;4994394;28;20033;-91
2022/11/14 01:03:57;;;;;;;9.75;5.35;;;9.00;68.70;;;;;;4991785;28;20111;-91
2022/11/14 01:06:23;;;;;;;15.02;7.03;;;9.00;68.90;;;;;;5003735;28;20018;-91
2022/11/14 01:08:52;;;;;;;10.50;6.72;;;9.00;69.10;;;;;;4978380;28;20089;-91
2022/11/14 01:11:20;;;;;;;10.45;6.18;;;9.00;69.10;;;;;;5010713;28;20038;-91
2022/11/14 01:13:46;;;;;;;17.98;7.43;;;9.00;69.20;;;;;;5010744;28;20030;-91
2022/11/14 01:16:12;;;;;;;10.30;6.40;;;8.90;69.20;;;;;;5010896;28;20027;-87
2022/11/14 01:18:39;;;;;;;10.43;6.15;;;8.90;69.40;;;;;;5008848;28;20077;-86
2022/11/14 01:21:07;;;;;;;10.45;6.70;;;8.80;69.40;;;;;;5008877;28;20080;-86
2022/11/14 01:23:33;;;;;;;12.00;6.65;;;8.80;69.40;;;;;;5023196;28;20038;-92
2022/11/14 01:26:03;;;;;;;9.98;6.13;;;8.90;69.50;;;;;;4992498;28;20034;-93
2022/11/14 01:28:29;;;;;;;8.75;6.15;;;8.90;69.50;;;;;;4993947;28;20093;-92
2022/11/14 01:30:55;;;;;;;8.43;6.35;;;8.80;69.50;;;;;;5013834;28;20037;-88
2022/11/14 01:33:21;;;;;;;9.93;6.63;;;8.80;69.60;;;;;;5028991;28;20140;-91
2022/11/14 01:35:46;;;;;;;8.82;6.07;;;8.70;69.60;;;;;;5014218;28;20036;-91
2022/11/14 01:38:13;;;;;;;11.75;7.35;;;8.70;69.60;;;;;;5030192;28;20026;-91
2022/11/14 01:40:44;;;;;;;9.05;6.20;;;8.70;69.70;;;;;;5025141;28;20380;-91
2022/11/14 01:43:16;;;;;;;10.20;6.63;;;8.70;69.80;;;;;;5033193;28;20030;-91
2022/11/14 01:45:44;;;;;;;11.40;6.93;;;8.70;69.80;;;;;;5030242;28;20512;-91
2022/11/14 01:48:33;;;;;;;11.68;7.72;;;8.60;69.90;;;;;;5030397;28;20049;-92
2022/11/14 01:51:23;;;;;;;11.27;8.07;;;8.60;70.00;;;;;;5003907;28;20037;-93
2022/11/14 01:53:53;;;;;;;11.45;7.43;;;8.60;70.20;;;;;;5013297;28;20052;-92
2022/11/14 01:56:26;;;;;;;9.43;6.50;;;8.50;70.20;;;;;;5013432;28;20033;-93
2022/11/14 01:58:57;;;;;;;13.70;6.45;;;8.50;70.20;;;;;;5013548;28;20485;-93
2022/11/14 02:01:24;;;;;;;10.27;6.53;;;8.50;70.20;;;;;;5011730;28;20028;-88
2022/11/14 02:03:52;;;;;;;13.35;6.05;;;8.50;70.30;;;;;;5028749;28;20034;-88
2022/11/14 02:06:24;;;;;;;9.23;5.57;;;8.50;70.30;;;;;;5004357;28;20408;-88
2022/11/14 02:08:50;;;;;;;;;;;8.40;70.30;;;;;;5028750;28;20029;-91
2022/11/14 02:11:16;;;;;;;11.10;5.88;;;8.30;70.50;;;;;;5028867;28;19917;-91
2022/11/14 02:13:42;;;;;;;11.60;6.95;;;8.30;70.70;;;;;;5009458;28;20076;-91
2022/11/14 02:16:07;;;;;;;9.98;7.18;;;8.30;70.70;;;;;;5004302;28;20033;-88
2022/11/14 02:18:33;;;;;;;13.77;7.13;;;8.30;70.70;;;;;;5028086;28;20029;-88
2022/11/14 02:20:59;;;;;;;10.18;6.72;;;8.30;70.80;;;;;;5024279;28;20026;-87
2022/11/14 02:23:27;;;;;;;12.52;7.70;;;8.30;70.90;;;;;;5038312;28;20102;-88
2022/11/14 02:25:53;;;;;;;12.80;7.63;;;8.30;70.90;;;;;;5020153;28;20030;-86
2022/11/14 02:28:20;;;;;;;10.75;7.32;;;8.30;71.00;;;;;;5028545;28;20341;-87
2022/11/14 02:30:46;;;;;;;13.45;7.53;;;8.20;71.00;;;;;;5010678;28;20112;-87
2022/11/14 02:33:13;;;;;;;10.65;6.45;;;8.20;71.00;;;;;;5045447;28;20440;-91
2022/11/14 02:35:39;;;;;;;15.15;8.10;;;8.20;71.10;;;;;;5015614;28;20018;-89
2022/11/14 02:38:05;;;;;;;11.63;6.88;;;8.20;71.20;;;;;;5018337;28;20034;-89
2022/11/14 02:40:31;;;;;;;12.38;7.50;;;8.20;71.20;;;;;;5052921;28;20024;-90
2022/11/14 02:42:56;;;;;;;12.50;6.90;;;8.20;71.30;;;;;;5017788;28;20060;-90
2022/11/14 02:45:22;;;;;;;13.75;7.47;;;8.20;71.40;;;;;;5032222;28;20499;-90
2022/11/14 02:47:48;;;;;;;13.80;7.50;;;8.10;71.40;;;;;;5015891;28;20038;-90
2022/11/14 02:50:14;;;;;;;10.80;6.55;;;8.10;71.40;;;;;;5010967;28;20080;-86
2022/11/14 02:52:40;;;;;;;14.57;8.13;;;8.20;71.40;;;;;;5012630;28;20029;-87
2022/11/14 02:55:06;;;;;;;12.43;7.03;;;8.10;71.50;;;;;;5029427;28;20048;-86
2022/11/14 02:57:32;;;;;;;13.43;8.85;;;8.10;71.60;;;;;;5005455;28;20168;-87
2022/11/14 02:59:57;;;;;;;10.27;6.13;;;8.00;71.60;;;;;;5020090;28;20045;-87
2022/11/14 03:02:23;;;;;;;13.60;7.25;;;8.00;71.70;;;;;;5018529;28;20026;-87
2022/11/14 03:04:49;;;;;;;19.05;7.38;;;8.00;71.80;;;;;;5025465;28;20092;-87
2022/11/14 03:07:14;;;;;;;10.43;6.82;;;8.00;71.70;;;;;;4998439;28;20033;-87
2022/11/14 03:09:40;;;;;;;10.60;7.32;;;8.00;71.60;;;;;;5018741;28;20030;-87
2022/11/14 03:12:06;;;;;;;9.77;6.25;;;8.00;72.30;;;;;;5014351;28;20416;-88
2022/11/14 03:14:32;;;;;;;9.90;6.78;;;8.00;71.60;;;;;;5016278;28;20025;-91
2022/11/14 03:16:58;;;;;;;14.65;8.27;;;8.00;71.60;;;;;;4998924;28;20030;-90
2022/11/14 03:19:23;;;;;;;13.45;7.15;;;8.00;71.70;;;;;;5035090;28;20036;-91
2022/11/14 03:21:49;;;;;;;12.57;7.43;;;8.00;71.80;;;;;;5010194;28;20045;-91
2022/11/14 03:24:15;;;;;;;15.60;9.18;;;7.90;71.90;;;;;;5013926;28;20033;-87
2022/11/14 03:26:40;;;;;;;14.35;8.43;;;7.90;72.00;;;;;;5022525;28;20083;-87
2022/11/14 03:29:07;;;;;;;12.20;7.90;;;7.90;72.10;;;;;;5031179;28;20124;-87
2022/11/14 03:31:33;;;;;;;9.82;6.85;;;7.90;72.10;;;;;;5006849;28;20595;-91
2022/11/14 03:33:58;;;;;;;11.40;6.97;;;7.90;72.20;;;;;;5010266;28;20121;-91
2022/11/14 03:36:24;;;;;;;8.60;6.75;;;7.90;72.20;;;;;;5025336;28;20071;-90
2022/11/14 03:38:50;;;;;;;18.33;8.85;;;7.90;72.20;;;;;;5029887;28;20025;-91
2022/11/14 03:41:16;;;;;;;9.75;6.13;;;7.80;72.20;;;;;;5011593;28;20117;-91
2022/11/14 03:43:41;;;;;;;10.70;7.75;;;7.80;72.20;;;;;;5028723;28;20543;-91
2022/11/14 03:46:07;;;;;;;12.20;7.57;;;7.80;72.20;;;;;;5034272;28;20116;-90
2022/11/14 03:48:33;;;;;;;12.80;8.05;;;7.80;72.30;;;;;;5015480;28;20040;-91
2022/11/14 03:50:58;;;;;;;9.95;7.15;;;7.80;72.20;;;;;;5019312;28;20487;-91
2022/11/14 03:53:24;;;;;;;10.32;6.47;;;7.80;72.40;;;;;;5034067;28;20025;-87
2022/11/14 03:55:51;;;;;;;11.85;6.88;;;7.80;72.30;;;;;;5035371;28;20029;-91
2022/11/14 03:58:17;;;;;;;13.95;7.78;;;7.80;72.30;;;;;;5022549;28;20117;-87
2022/11/14 04:00:42;;;;;;;7.32;6.15;;;7.80;72.20;;;;;;5016423;28;20056;-88
2022/11/14 04:03:08;;;;;;;8.55;6.70;;;7.80;72.30;;;;;;5011646;28;20399;-88
2022/11/14 04:05:34;;;;;;;8.90;6.35;;;7.70;72.30;;;;;;5053189;28;20033;-87
2022/11/14 04:07:59;;;;;;;11.07;6.80;;;7.70;72.20;;;;;;5032115;28;20045;-91
2022/11/14 04:10:25;;;;;;;13.13;7.40;;;7.70;72.30;;;;;;5025462;28;20383;-90
2022/11/14 04:12:53;;;;;;;10.48;7.50;;;7.70;72.50;;;;;;5045786;28;20021;-87
2022/11/14 04:15:20;;;;;;;12.57;7.75;;;7.70;72.50;;;;;;5021644;28;20017;-91
2022/11/14 04:17:46;;;;;;;13.18;7.18;;;7.60;72.40;;;;;;5019038;28;20387;-91
2022/11/14 04:20:13;;;;;;;10.43;7.47;;;7.60;72.40;;;;;;5018851;28;20847;-90
2022/11/14 04:22:39;;;;;;;14.95;7.75;;;7.60;72.50;;;;;;5037731;28;20021;-91
2022/11/14 04:25:06;;;;;;;13.75;7.20;;;7.60;72.50;;;;;;5020939;28;20040;-90
2022/11/14 04:27:32;;;;;;;13.48;7.70;;;7.60;72.50;;;;;;5017093;28;20030;-87
2022/11/14 04:29:58;;;;;;;12.77;8.10;;;7.60;72.40;;;;;;5014877;28;20026;-88
2022/11/14 04:32:24;;;;;;;10.35;7.20;;;7.60;72.40;;;;;;5026144;28;20054;-88
2022/11/14 04:34:49;;;;;;;15.95;7.55;;;7.60;72.40;;;;;;5014298;28;20091;-88
2022/11/14 04:37:15;;;;;;;10.45;7.18;;;7.60;72.30;;;;;;5025069;28;20026;-87
2022/11/14 04:39:40;;;;;;;13.32;7.35;;;7.60;72.30;;;;;;5027735;28;20032;-88
2022/11/14 04:42:06;;;;;;;12.95;7.70;;;7.50;72.30;;;;;;5021279;28;20034;-88
2022/11/14 04:44:32;;;;;;;11.98;6.88;;;7.50;72.50;;;;;;5023592;28;20040;-88
2022/11/14 04:47:03;;;;;;;10.85;7.03;;;7.50;72.50;;;;;;5012263;28;20072;-92
2022/11/14 04:49:29;;;;;;;12.15;7.35;;;7.50;72.50;;;;;;5014583;28;20030;-92
2022/11/14 04:51:55;;;;;;;10.27;6.85;;;7.50;72.50;;;;;;5014323;28;20572;-91
2022/11/14 04:54:20;;;;;;;11.30;7.03;;;7.40;72.50;;;;;;5002225;28;20660;-92
2022/11/14 04:56:46;;;;;;;16.20;7.15;;;7.40;72.60;;;;;;5010102;28;20022;-91
2022/11/14 04:59:15;;;;;;;12.85;7.55;;;7.40;72.80;;;;;;5017074;28;20426;-88
2022/11/14 05:01:40;;;;;;;14.18;8.30;;;7.40;72.80;;;;;;5018173;28;20030;-87
2022/11/14 05:04:06;;;;;;;12.75;7.78;;;7.30;72.80;;;;;;5016089;28;20029;-92
2022/11/14 05:06:32;;;;;;;15.88;7.90;;;7.30;72.90;;;;;;5016451;28;20032;-92
2022/11/14 05:08:57;;;;;;;13.10;7.45;;;7.30;73.00;;;;;;5017901;28;20163;-91
2022/11/14 05:11:23;;;;;;;12.18;7.68;;;7.20;73.00;;;;;;5018135;28;20026;-92
2022/11/14 05:13:49;;;;;;;14.32;8.38;;;7.20;73.00;;;;;;5033532;28;20032;-88
2022/11/14 05:16:15;;;;;;;11.05;8.23;;;7.20;73.00;;;;;;5018815;28;20026;-92
2022/11/14 05:18:40;;;;;;;12.68;8.05;;;7.20;73.00;;;;;;5013788;28;20028;-91
2022/11/14 05:21:09;;;;;;;13.73;7.45;;;7.20;73.00;;;;;;5012113;28;20029;-88
2022/11/14 05:23:35;;;;;;;15.25;7.00;;;7.20;73.00;;;;;;5031227;28;20040;-88
2022/11/14 05:26:03;;;;;;;14.15;7.25;;;7.20;73.20;;;;;;5024397;28;20025;-92
2022/11/14 05:28:30;;;;;;;18.50;7.30;;;7.10;73.10;;;;;;5028553;28;20030;-92
2022/11/14 05:31:02;;;;;;;12.10;7.72;;;7.10;73.20;;;;;;5019398;28;20065;-88
2022/11/14 05:33:28;;;;;;;9.20;6.72;;;7.10;73.10;;;;;;5030519;28;20036;-88
2022/11/14 05:35:54;;;;;;;8.98;6.53;;;7.10;73.30;;;;;;5013924;28;20496;-88
2022/11/14 05:38:19;;;;;;;12.55;7.47;;;7.10;73.30;;;;;;5013030;28;20022;-88
2022/11/14 05:40:45;;;;;;;13.80;8.50;;;7.10;73.20;;;;;;5016733;28;20025;-88
2022/11/14 05:43:11;;;;;;;11.18;7.32;;;7.00;73.20;;;;;;5016307;28;20025;-88
2022/11/14 05:45:37;;;;;;;15.77;9.25;;;7.10;73.40;;;;;;5015321;28;20033;-88
2022/11/14 05:48:02;;;;;;;15.75;7.47;;;7.00;73.30;;;;;;5013004;28;20399;-88
2022/11/14 05:50:28;;;;;;;13.82;7.97;;;7.00;73.50;;;;;;5014729;28;20026;-88
2022/11/14 05:52:55;;;;;;;18.17;8.63;;;7.00;73.50;;;;;;5031608;28;20462;-88
2022/11/14 05:55:21;;;;;;;12.32;8.38;;;7.00;73.50;;;;;;5015923;28;20093;-87
2022/11/14 05:57:46;;;;;;;14.63;7.82;;;6.90;73.40;;;;;;5000496;28;20124;-88
2022/11/14 06:00:13;;;;;;;11.90;7.45;;;6.90;73.40;;;;;;4997659;28;20039;-88
2022/11/14 06:02:38;;;;;;;15.07;7.93;;;6.90;73.40;;;;;;5030387;28;20087;-91
2022/11/14 06:05:04;;;;;;;16.75;6.35;;;6.90;73.50;;;;;;5019083;28;20033;-91
2022/11/14 06:07:30;;;;;;;11.02;7.15;;;6.90;73.50;;;;;;5002362;28;20033;-88
2022/11/14 06:09:56;;;;;;;9.70;7.32;;;6.80;73.40;;;;;;5012662;28;20034;-92
2022/11/14 06:12:21;;;;;;;11.40;6.00;;;6.80;73.40;;;;;;5017703;28;20017;-90
2022/11/14 06:14:47;;;;;;;12.27;6.97;;;6.80;73.40;;;;;;4998039;28;20116;-88
2022/11/14 06:17:13;;;;;;;10.05;6.28;;;6.90;73.50;;;;;;4994082;28;20034;-88
2022/11/14 06:19:39;;;;;;;14.52;7.78;;;6.80;73.40;;;;;;5036370;28;20791;-88
2022/11/14 06:22:05;;;;;;;13.27;7.43;;;6.80;73.50;;;;;;5013439;28;20068;-88
2022/11/14 06:24:30;;;;;;;11.23;6.55;;;6.80;73.50;;;;;;5041370;28;20541;-88
2022/11/14 06:26:56;;;;;;;12.50;7.63;;;6.80;73.50;;;;;;5013173;28;20430;-87
2022/11/14 06:29:22;;;;;;;14.13;7.13;;;6.70;73.60;;;;;;5018194;28;20037;-88
2022/11/14 06:31:47;;;;;;;13.73;7.15;;;6.70;73.60;;;;;;5012247;28;20038;-90
2022/11/14 06:34:13;;;;;;;10.18;6.43;;;6.70;73.60;;;;;;5016314;28;20026;-88
2022/11/14 06:36:39;;;;;;;13.23;7.20;;;6.70;73.60;;;;;;5037664;28;20073;-86
2022/11/14 06:39:04;;;;;;;11.45;5.85;;;6.70;73.60;;;;;;5034603;28;20033;-88
2022/11/14 06:41:30;;;;;;;12.40;7.63;;;6.70;73.60;;;;;;5017783;28;20026;-88
2022/11/14 06:43:56;;;;;;;12.40;7.18;;;6.70;73.60;;;;;;5004310;28;20129;-90
2022/11/14 06:46:22;;;;;;;12.80;7.55;;;6.70;73.70;;;;;;5014633;28;20026;-92
2022/11/14 06:48:49;;;;;;;10.02;5.57;;;6.70;73.90;;;;;;5027529;28;20048;-92
2022/11/14 06:51:16;;;;;;;13.48;7.95;;;6.60;73.80;;;;;;5041516;28;20438;-88
2022/11/14 06:53:42;;;;;;;14.00;7.78;;;6.60;74.00;;;;;;5022059;28;20025;-91
2022/11/14 06:56:14;;;;;;;14.48;7.88;;;6.60;74.10;;;;;;5024374;28;20091;-90
2022/11/14 06:58:43;;;;;;;9.38;6.63;;;6.60;74.10;;;;;;5031198;28;20116;-91
2022/11/14 07:01:14;;;;;;;10.35;6.47;;;6.60;74.10;;;;;;5027127;28;20502;-92
2022/11/14 07:03:40;;;;;;;12.02;7.32;;;6.60;74.00;;;;;;5033319;28;20029;-92
2022/11/14 07:06:08;;;;;;;13.93;8.18;;;6.60;74.00;;;;;;5051786;28;20033;-91
2022/11/14 07:08:34;;;;;;;13.65;5.97;;;6.60;74.20;;;;;;5034430;28;20025;-87
2022/11/14 07:11:05;;;;;;;12.32;6.70;;;6.60;74.30;;;;;;5020767;28;20037;-91
2022/11/14 07:13:32;;;;;;;12.43;7.60;;;6.60;74.10;;;;;;5038912;28;20108;-90
2022/11/14 07:15:57;;;;;;;8.95;6.50;;;6.60;74.20;;;;;;5019127;28;20388;-90
2022/11/14 07:18:23;;;;;;;13.20;7.13;;;6.60;74.10;;;;;;5020105;28;20025;-91
2022/11/14 07:20:49;;;;;;;9.23;6.05;;;6.60;74.10;;;;;;5015899;28;20061;-88
2022/11/14 07:23:15;;;;;;;9.77;6.03;;;6.60;74.10;;;;;;5032962;28;20077;-87
2022/11/14 07:25:40;;;;;;;9.43;6.78;;;6.60;74.10;;;;;;5020997;28;20045;-88
2022/11/14 07:28:06;;;;;;;12.23;6.97;;;6.60;74.20;;;;;;5022410;28;20444;-87
2022/11/14 07:30:33;;;;;;;11.38;6.75;;;6.60;74.20;;;;;;5016452;28;20017;-87
2022/11/14 07:32:58;;;;;;;7.57;5.22;;;6.60;74.30;;;;;;5022208;28;20029;-88
2022/11/14 07:35:25;;;;;;;12.48;6.90;;;6.60;74.10;;;;;;5018585;28;20029;-88
2022/11/14 07:37:51;;;;;;;12.77;7.53;;;6.70;74.20;;;;;;5022139;28;20026;-92
2022/11/14 07:40:18;;;;;;;10.57;6.05;;;6.70;74.20;;;;;;5034818;28;20035;-92
2022/11/14 07:42:43;;;;;;;11.77;5.82;;;6.70;74.10;;;;;;5041206;28;20029;-90
2022/11/14 07:45:10;;;;;;;13.80;6.65;;;6.70;74.10;;;;;;5018839;28;20168;-87
2022/11/14 07:47:36;;;;;;;10.75;6.55;;;6.70;74.10;;;;;;5019934;28;20033;-87
2022/11/14 07:50:02;;;;;;;8.88;6.15;;;6.70;74.10;;;;;;5022197;28;20032;-90
2022/11/14 07:52:30;;;;;;;11.88;6.25;;;6.70;74.10;;;;;;5053384;28;20029;-93
2022/11/14 07:54:56;;;;;;;10.82;6.80;;;6.70;74.10;;;;;;5024182;28;20032;-91
2022/11/14 07:57:21;;;;;;;7.05;5.90;;;6.70;74.20;;;;;;5045787;28;20057;-91
2022/11/14 07:59:47;;;;;;;10.80;6.07;;;6.70;74.10;;;;;;5019838;28;20025;-94
2022/11/14 08:02:14;;;;;;;8.23;5.30;;;6.80;74.10;;;;;;5028758;28;20480;-92
2022/11/14 08:04:43;;;;;;;10.32;6.95;;;6.80;74.10;;;;;;5036619;28;20029;-92
2022/11/14 08:07:09;;;;;;;9.98;7.75;;;6.80;74.20;;;;;;5033347;28;20034;-92
2022/11/14 08:09:34;;;;;;;9.85;6.43;;;6.80;74.30;;;;;;5049736;28;20033;-91
2022/11/14 08:12:00;;;;;;;12.52;6.18;;;6.80;74.30;;;;;;5027337;28;20058;-92
2022/11/14 08:14:26;;;;;;;9.15;6.20;;;6.90;74.40;;;;;;5042694;28;20508;-92
2022/11/14 08:16:52;;;;;;;9.15;5.55;;;6.90;74.30;;;;;;5027901;28;20018;-89
2022/11/14 08:19:17;;;;;;;9.20;5.50;;;6.90;74.20;;;;;;5018857;28;20033;-89
2022/11/14 08:21:44;;;;;;;9.70;6.40;;;6.90;74.20;;;;;;5017685;28;20116;-88
2022/11/14 08:24:10;;;;;;;7.47;5.65;;;6.90;74.20;;;;;;5030426;28;20026;-87
2022/11/14 08:26:35;;;;;;;12.15;6.18;;;6.90;74.30;;;;;;5016863;28;20037;-88
2022/11/14 08:29:01;;;;;;;11.57;7.38;;;6.80;74.20;;;;;;5014269;28;20033;-87
2022/11/14 08:31:27;;;;;;;11.15;6.03;;;6.90;74.40;;;;;;5014181;28;20113;-91
2022/11/14 08:33:53;;;;;;;8.95;6.45;;;6.90;74.30;;;;;;5046491;28;20018;-92
2022/11/14 08:36:19;;;;;;;12.07;7.18;;;7.00;74.50;;;;;;5001591;28;20154;-88
2022/11/14 08:38:44;;;;;;;12.02;6.15;;;7.00;74.40;;;;;;5008634;28;20021;-89
2022/11/14 08:41:10;;;;;;;8.90;5.40;;;7.00;74.30;;;;;;5004812;28;20510;-88
2022/11/14 08:43:36;;;;;;;8.27;5.30;;;7.00;74.20;;;;;;5016324;28;20034;-88
2022/11/14 08:46:04;;;;;;;7.95;5.18;;;7.10;74.30;;;;;;5003205;28;20025;-92
2022/11/14 08:48:30;;;;;;;14.40;6.70;;;7.10;74.20;;;;;;5027072;28;20044;-91
2022/11/14 08:50:57;;;;;;;10.80;5.70;;;7.20;74.20;;;;;;5019214;28;20097;-91
2022/11/14 08:53:23;;;;;;;11.77;7.10;;;7.30;74.10;;;;;;5037254;28;20053;-91
2022/11/14 08:55:48;;;;;;;7.47;5.43;;;7.30;74.00;;;;;;5040587;28;20053;-88
2022/11/14 08:58:15;;;;;;;8.25;6.63;;;7.40;73.90;;;;;;5023380;28;20029;-92
2022/11/14 09:00:40;;;;;;;10.00;6.28;;;7.50;73.90;;;;;;5017782;28;20021;-93
2022/11/14 09:03:08;;;;;;;13.20;7.20;;;7.60;73.90;;;;;;5045405;28;20463;-92
2022/11/14 09:05:34;;;;;;;10.60;6.90;;;7.70;73.70;;;;;;5020202;28;20025;-92
2022/11/14 09:08:00;;;;;;;8.98;5.57;;;7.80;73.60;;;;;;5036564;28;20033;-92
2022/11/14 09:10:26;;;;;;;10.15;5.72;;;7.90;73.40;;;;;;5021743;28;20113;-93
2022/11/14 09:12:59;;;;;;;11.50;6.30;;;8.10;73.20;;;;;;5019828;28;20036;-91
2022/11/14 09:15:29;;;;;;;12.50;6.40;;;8.20;72.90;;;;;;5036033;28;20031;-88
2022/11/14 09:17:56;;;;;;;9.63;6.10;;;8.40;72.80;;;;;;5025777;28;20044;-87
2022/11/14 09:20:24;;;;;;;7.50;5.20;;;8.50;72.50;;;;;;5027380;28;20039;-87
2022/11/14 09:22:52;;;;;;;9.60;5.78;;;8.60;72.20;;;;;;5015812;28;20543;-92
2022/11/14 09:25:21;;;;;;;10.25;5.95;;;8.70;72.10;;;;;;5023214;28;20491;-91
2022/11/14 09:27:47;;;;;;;8.43;5.75;;;8.80;71.90;;;;;;5044693;28;20025;-87
2022/11/14 09:30:13;;;;;;;9.73;6.15;;;8.90;71.80;;;;;;5016555;28;20025;-87
2022/11/14 09:32:39;;;;;;;8.02;5.85;;;9.10;71.60;;;;;;5037425;28;20042;-93
2022/11/14 09:35:05;;;;;;;13.50;5.68;;;9.20;71.30;;;;;;5018989;28;20106;-87
2022/11/14 09:37:31;;;;;;;8.40;5.05;;;9.30;71.10;;;;;;5019918;28;20098;-91
2022/11/14 09:39:57;;;;;;;6.15;4.72;;;9.40;71.00;;;;;;5021945;28;20068;-91
2022/11/14 09:42:35;;;;;;;10.88;5.07;;;9.60;70.80;;;;;;4998583;28;20041;-90
2022/11/14 09:45:03;;;;;;;8.00;4.82;;;9.70;70.50;;;;;;5032302;28;20040;-91
2022/11/14 09:47:36;;;;;;;7.47;4.97;;;9.80;70.30;;;;;;5024723;28;20472;-91
2022/11/14 09:50:14;;;;;;;15.02;5.40;;;9.90;70.20;;;;;;5038172;28;20038;-92
2022/11/14 09:52:46;;;;;;;9.23;5.07;;;10.10;69.90;;;;;;5034385;28;20025;-87
2022/11/14 09:55:12;;;;;;;11.35;6.03;;;10.20;69.70;;;;;;5018636;28;20022;-92
2022/11/14 09:57:43;;;;;;;12.07;6.20;;;10.20;69.50;;;;;;5037204;28;20021;-92
2022/11/14 10:00:13;;;;;;;9.25;4.75;;;10.30;69.30;;;;;;5035715;28;20030;-92
2022/11/14 10:02:51;;;;;;;7.30;5.05;;;10.40;69.20;;;;;;5016303;28;20054;-92
2022/11/14 10:05:35;;;;;;;8.90;5.97;;;10.50;69.20;;;;;;5031988;28;20105;-88
2022/11/14 10:08:28;;;;;;;7.65;5.72;;;10.60;68.80;;;;;;5026275;28;20034;-93
2022/11/14 10:10:58;;;;;;;8.70;5.38;;;10.70;68.80;;;;;;5029254;28;20026;-89
2022/11/14 10:13:48;;;;;;;9.77;5.65;;;10.90;68.50;;;;;;5015322;28;20392;-89
2022/11/14 10:16:21;;;;;;;8.40;5.82;;;11.00;68.30;;;;;;5032518;28;20026;-88
2022/11/14 10:19:28;;;;;;;7.15;5.20;;;11.20;68.00;;;;;;5017800;28;20021;-88
2022/11/14 10:22:25;;;;;;;9.27;4.85;;;11.30;67.50;;;;;;5034447;28;20506;-89
2022/11/14 10:25:19;;;;;;;10.02;5.75;;;11.30;67.40;;;;;;5016284;28;20155;-87
2022/11/14 10:28:20;;;;;;;9.90;5.30;;;11.40;67.30;;;;;;5039702;28;20396;-92
2022/11/14 10:31:10;;;;;;;6.68;4.65;;;11.70;67.40;;;;;;5003254;28;20030;-88
2022/11/14 10:34:10;;;;;;;9.40;5.40;;;12.00;67.20;;;;;;5031429;28;20033;-88
2022/11/14 10:36:52;;;;;;;7.32;4.97;;;12.40;66.90;;;;;;5032233;28;20124;-88
2022/11/14 10:39:20;;;;;;;;;;;12.80;66.30;;;;;;5033130;28;20036;-88
2022/11/14 10:41:50;;;;;;;8.32;4.78;;;13.40;65.40;;;;;;5035636;28;20008;-88
2022/11/14 10:44:23;;;;;;;7.65;4.47;;;14.20;62.90;;;;;;5032299;28;20056;-93
2022/11/14 10:47:00;;;;;;;9.05;5.72;;;15.40;60.20;;;;;;5014684;28;20037;-88
2022/11/14 10:49:25;;;;;;;10.30;4.43;;;17.00;56.50;;;;;;5018460;28;20021;-91
2022/11/14 10:51:54;;;;;;;11.20;4.65;;;18.70;53.10;;;;;;5015081;28;20428;-88
2022/11/14 10:54:33;;;;;;;7.07;4.80;;;20.20;49.90;;;;;;5008141;28;20500;-88
2022/11/14 10:56:59;;;;;;;7.03;4.80;;;21.10;46.50;;;;;;5017140;28;20511;-88
2022/11/14 10:59:26;;;;;;;8.23;3.58;;;21.70;45.80;;;;;;5013730;28;20049;-88
2022/11/14 11:01:56;;;;;;;7.60;4.57;;;22.40;44.80;;;;;;5038055;28;20022;-88
2022/11/14 11:04:35;;;;;;;9.02;3.78;;;22.60;42.80;;;;;;5034192;28;20032;-88
2022/11/14 11:07:07;;;;;;;10.30;4.00;;;22.50;42.70;;;;;;5041242;28;20047;-88
2022/11/14 11:12:44;;;;;;;6.30;4.30;;;22.50;41.60;;;;;;5031843;28;20036;-87
2022/11/14 11:15:28;;;;;;;6.05;3.97;;;22.70;41.90;;;;;;5035005;28;20038;-93
2022/11/14 11:18:26;;;;;;;4.65;3.28;;;23.00;41.70;;;;;;5028666;28;20042;-93
2022/11/14 11:21:07;;;;;;;6.55;3.72;;;23.50;40.70;;;;;;5037188;28;20041;-93
2022/11/14 11:23:33;;;;;;;6.15;3.67;;;22.90;41.00;;;;;;5021241;28;20080;-94
2022/11/14 11:26:07;;;;;;;5.50;3.60;;;22.30;42.00;;;;;;5038476;28;20038;-94
2022/11/14 11:28:35;;;;;;;8.60;3.80;;;21.30;43.70;;;;;;5015384;28;20022;-94
2022/11/14 11:31:09;;;;;;;6.60;4.90;;;19.70;45.20;;;;;;5019646;28;20037;-94
2022/11/14 11:33:41;;;;;;;9.63;4.72;;;18.00;47.90;;;;;;5026481;28;20065;-88
2022/11/14 11:36:13;;;;;;;5.03;3.35;;;16.40;51.00;;;;;;5019585;28;20459;-88
2022/11/14 11:38:40;;;;;;;9.32;4.82;;;15.20;53.70;;;;;;5018231;28;20026;-88
2022/11/14 11:41:12;;;;;;;9.90;6.03;;;14.30;55.80;;;;;;5035673;28;20043;-94
2022/11/14 11:43:41;;;;;;;;;;;13.60;57.80;;;;;;5035998;28;20034;-88
2022/11/14 11:46:29;;;;;;;8.95;5.32;;;13.00;59.00;;;;;;5015674;28;19967;-88
2022/11/14 11:49:04;;;;;;;12.65;6.50;;;12.60;60.30;;;;;;5036145;28;20052;-95
2022/11/14 11:51:36;;;;;;;11.82;6.70;;;12.30;61.50;;;;;;5033726;28;20022;-92
2022/11/14 11:54:34;;;;;;;11.50;5.43;;;12.10;62.10;;;;;;5020434;28;20047;-94
2022/11/14 11:57:04;;;;;;;13.23;7.20;;;11.90;62.90;;;;;;5037029;28;20164;-93
2022/11/14 11:59:40;;;;;;;10.07;6.15;;;11.60;63.70;;;;;;5020621;28;20375;-89
2022/11/14 12:02:19;;;;;;;9.80;5.57;;;11.50;64.40;;;;;;5018599;28;20021;-89
2022/11/14 12:04:45;;;;;;;11.52;6.15;;;11.30;64.80;;;;;;5041252;28;20056;-88
2022/11/14 12:07:21;;;;;;;10.55;7.38;;;11.20;65.50;;;;;;5036857;28;20029;-88
2022/11/14 12:09:48;;;;;;;7.80;5.20;;;11.20;65.50;;;;;;5018179;28;20021;-87
2022/11/14 12:12:30;;;;;;;8.98;5.78;;;11.20;65.70;;;;;;5020597;28;20021;-94
2022/11/14 12:15:38;;;;;;;12.02;6.60;;;11.20;66.20;;;;;;5020740;28;20025;-93
2022/11/14 12:18:31;;;;;;;11.23;6.95;;;11.10;66.40;;;;;;5020036;28;20112;-92
2022/11/14 12:21:18;;;;;;;10.15;6.88;;;11.00;66.70;;;;;;5035719;28;20033;-93
2022/11/14 12:23:53;;;;;;;13.38;6.80;;;10.90;66.80;;;;;;5036058;28;20053;-93
2022/11/14 12:26:27;;;;;;;11.48;7.30;;;10.90;67.30;;;;;;5037142;28;20029;-94
2022/11/14 12:29:14;;;;;;;8.02;5.22;;;10.90;67.20;;;;;;5036569;28;20052;-94
2022/11/14 12:31:41;;;;;;;10.45;5.25;;;10.90;67.20;;;;;;5024594;28;20434;-88
2022/11/14 12:34:13;;;;;;;13.82;5.72;;;10.90;67.10;;;;;;5019820;28;20387;-89
2022/11/14 12:36:41;;;;;;;8.40;5.57;;;11.00;67.10;;;;;;5034301;28;20022;-88
2022/11/14 12:39:22;;;;;;;10.95;7.10;;;11.00;67.30;;;;;;5017683;28;20026;-88
2022/11/14 12:41:48;;;;;;;7.78;5.50;;;11.00;67.40;;;;;;5016929;28;20034;-88
2022/11/14 12:44:31;;;;;;;12.13;5.60;;;11.00;67.60;;;;;;4999770;28;20433;-87
2022/11/14 12:47:06;;;;;;;;;;;11.00;67.70;;;;;;5023889;28;20037;-88
2022/11/14 12:49:36;;;;;;;11.85;7.07;;;10.90;67.80;;;;;;5034835;28;19933;-88
2022/11/14 12:52:03;;;;;;;9.43;6.50;;;10.90;67.80;;;;;;5020327;28;20044;-87
2022/11/14 12:54:46;;;;;;;8.23;5.35;;;10.90;67.80;;;;;;5014190;28;20057;-88
2022/11/14 12:57:47;;;;;;;8.00;5.32;;;10.90;67.80;;;;;;5047763;28;20091;-88
2022/11/14 13:00:13;;;;;;;7.72;5.53;;;11.00;67.80;;;;;;5033716;28;20029;-89
2022/11/14 13:03:01;;;;;;;10.85;5.82;;;10.90;68.10;;;;;;5016834;28;20030;-88